sensor_id;sensor_type;location;lat;lon;timestamp;pressure;altitude;pressure_sealevel;temperature;humidity
21401;BME280;18038;50.166;18.908;2023-03-26T00:01:44;97039.75;;;5.25;65.50
21401;BME280;18038;50.166;18.908;2023-03-26T00:04:54;97034.81;;;5.22;65.73
21401;BME280;18038;50.166;18.908;2023-03-26T00:08:00;97031.25;;;5.15;66.22
21401;BME280;18038;50.166;18.908;2023-03-26T00:11:10;97040.19;;;5.14;66.44
21401;BME280;18038;50.166;18.908;2023-03-26T00:14:25;97043.22;;;5.11;67.28
21401;BME280;18038;50.166;18.908;2023-03-26T00:17:32;97041.84;;;5.00;67.51
21401;BME280;18038;50.166;18.908;2023-03-26T00:20:41;97037.84;;;5.05;68.01
21401;BME280;18038;50.166;18.908;2023-03-26T00:23:48;97042.97;;;4.91;69.91
21401;BME280;18038;50.166;18.908;2023-03-26T00:26:55;97043.41;;;4.95;69.31
21401;BME280;18038;50.166;18.908;2023-03-26T00:30:02;97037.94;;;4.81;69.68
21401;BME280;18038;50.166;18.908;2023-03-26T00:33:09;97037.84;;;4.90;70.11
21401;BME280;18038;50.166;18.908;2023-03-26T00:36:23;97030.81;;;4.97;70.35
21401;BME280;18038;50.166;18.908;2023-03-26T00:39:30;97025.34;;;4.98;70.18
21401;BME280;18038;50.166;18.908;2023-03-26T00:42:43;97024.44;;;4.76;71.46
21401;BME280;18038;50.166;18.908;2023-03-26T00:45:52;97026.53;;;4.81;71.13
21401;BME280;18038;50.166;18.908;2023-03-26T00:49:01;97016.22;;;4.71;71.49
21401;BME280;18038;50.166;18.908;2023-03-26T00:52:09;97013.13;;;4.68;71.59
21401;BME280;18038;50.166;18.908;2023-03-26T00:55:16;97007.56;;;4.77;71.40
21401;BME280;18038;50.166;18.908;2023-03-26T00:58:22;97001.00;;;4.73;70.79
21401;BME280;18038;50.166;18.908;2023-03-26T01:01:30;96992.97;;;4.52;71.51
21401;BME280;18038;50.166;18.908;2023-03-26T01:04:37;96990.31;;;4.52;71.39
21401;BME280;18038;50.166;18.908;2023-03-26T01:07:47;96994.22;;;4.56;71.39
21401;BME280;18038;50.166;18.908;2023-03-26T01:10:56;97000.97;;;4.44;70.76
21401;BME280;18038;50.166;18.908;2023-03-26T01:14:11;96989.50;;;4.51;69.70
21401;BME280;18038;50.166;18.908;2023-03-26T01:17:23;96994.69;;;4.45;69.19
21401;BME280;18038;50.166;18.908;2023-03-26T01:20:40;96987.03;;;4.50;68.61
21401;BME280;18038;50.166;18.908;2023-03-26T01:24:04;96994.97;;;4.50;68.78
21401;BME280;18038;50.166;18.908;2023-03-26T01:27:25;96984.63;;;4.40;68.62
21401;BME280;18038;50.166;18.908;2023-03-26T01:30:40;96993.06;;;4.44;68.58
21401;BME280;18038;50.166;18.908;2023-03-26T01:34:03;96993.41;;;4.41;68.61
21401;BME280;18038;50.166;18.908;2023-03-26T01:37:24;96995.78;;;4.35;68.86
21401;BME280;18038;50.166;18.908;2023-03-26T01:40:59;96979.44;;;4.32;68.76
21401;BME280;18038;50.166;18.908;2023-03-26T01:44:20;96986.28;;;4.26;69.17
21401;BME280;18038;50.166;18.908;2023-03-26T01:47:39;96993.56;;;4.24;69.50
21401;BME280;18038;50.166;18.908;2023-03-26T01:50:48;96985.81;;;4.23;69.37
21401;BME280;18038;50.166;18.908;2023-03-26T01:54:00;96990.75;;;4.26;69.15
21401;BME280;18038;50.166;18.908;2023-03-26T01:57:19;96983.47;;;4.28;69.06
21401;BME280;18038;50.166;18.908;2023-03-26T02:00:45;96976.44;;;4.20;69.40
21401;BME280;18038;50.166;18.908;2023-03-26T02:04:07;96985.16;;;4.21;70.01
21401;BME280;18038;50.166;18.908;2023-03-26T02:07:25;96977.06;;;4.22;70.10
21401;BME280;18038;50.166;18.908;2023-03-26T02:10:41;96981.25;;;4.17;70.49
21401;BME280;18038;50.166;18.908;2023-03-26T02:13:54;96976.16;;;4.15;69.88
21401;BME280;18038;50.166;18.908;2023-03-26T02:17:00;96973.94;;;4.19;69.82
21401;BME280;18038;50.166;18.908;2023-03-26T02:20:11;96980.06;;;4.19;69.49
21401;BME280;18038;50.166;18.908;2023-03-26T02:23:20;96978.53;;;4.25;69.41
21401;BME280;18038;50.166;18.908;2023-03-26T02:26:35;96983.19;;;4.37;69.11
21401;BME280;18038;50.166;18.908;2023-03-26T02:29:58;96986.91;;;4.28;69.29
21401;BME280;18038;50.166;18.908;2023-03-26T02:33:07;96991.97;;;4.38;68.83
21401;BME280;18038;50.166;18.908;2023-03-26T02:36:18;97000.22;;;4.35;69.24
21401;BME280;18038;50.166;18.908;2023-03-26T02:39:34;96985.00;;;4.22;70.60
21401;BME280;18038;50.166;18.908;2023-03-26T02:42:48;96980.16;;;4.26;71.48
21401;BME280;18038;50.166;18.908;2023-03-26T02:45:58;96985.34;;;4.19;71.57
21401;BME280;18038;50.166;18.908;2023-03-26T02:49:27;96979.06;;;4.20;71.26
21401;BME280;18038;50.166;18.908;2023-03-26T02:52:34;96970.50;;;4.18;71.30
21401;BME280;18038;50.166;18.908;2023-03-26T02:55:43;96957.94;;;4.20;70.99
21401;BME280;18038;50.166;18.908;2023-03-26T02:58:50;96950.53;;;4.15;71.34
21401;BME280;18038;50.166;18.908;2023-03-26T03:01:58;96952.06;;;4.10;72.24
21401;BME280;18038;50.166;18.908;2023-03-26T03:05:08;96958.25;;;4.02;72.24
21401;BME280;18038;50.166;18.908;2023-03-26T03:08:15;96957.16;;;3.97;71.86
21401;BME280;18038;50.166;18.908;2023-03-26T03:11:42;96967.66;;;4.05;71.27
21401;BME280;18038;50.166;18.908;2023-03-26T03:14:48;96960.38;;;4.07;72.22
21401;BME280;18038;50.166;18.908;2023-03-26T03:17:58;96957.28;;;4.03;71.77
21401;BME280;18038;50.166;18.908;2023-03-26T03:21:06;96955.72;;;4.24;70.80
21401;BME280;18038;50.166;18.908;2023-03-26T03:24:13;96960.56;;;4.20;70.65
21401;BME280;18038;50.166;18.908;2023-03-26T03:27:22;96956.19;;;4.12;70.16
21401;BME280;18038;50.166;18.908;2023-03-26T03:30:38;96961.03;;;4.24;70.56
21401;BME280;18038;50.166;18.908;2023-03-26T03:33:54;96953.00;;;4.17;70.41
21401;BME280;18038;50.166;18.908;2023-03-26T03:37:03;96958.00;;;4.12;70.83
21401;BME280;18038;50.166;18.908;2023-03-26T03:40:18;96954.91;;;4.23;70.43
21401;BME280;18038;50.166;18.908;2023-03-26T03:43:25;96951.47;;;4.23;70.83
21401;BME280;18038;50.166;18.908;2023-03-26T03:46:45;96967.22;;;4.31;70.15
21401;BME280;18038;50.166;18.908;2023-03-26T03:50:00;96975.41;;;4.21;70.34
21401;BME280;18038;50.166;18.908;2023-03-26T03:53:06;96970.03;;;4.14;71.34
21401;BME280;18038;50.166;18.908;2023-03-26T03:56:22;96965.22;;;4.18;72.19
21401;BME280;18038;50.166;18.908;2023-03-26T03:59:50;96968.38;;;4.13;72.29
21401;BME280;18038;50.166;18.908;2023-03-26T04:03:03;96973.59;;;4.22;71.61
21401;BME280;18038;50.166;18.908;2023-03-26T04:06:14;96980.41;;;4.16;71.76
21401;BME280;18038;50.166;18.908;2023-03-26T04:09:27;96971.69;;;4.15;71.18
21401;BME280;18038;50.166;18.908;2023-03-26T04:12:38;96968.31;;;4.22;70.96
21401;BME280;18038;50.166;18.908;2023-03-26T04:15:49;96975.97;;;4.31;70.21
21401;BME280;18038;50.166;18.908;2023-03-26T04:18:57;96971.69;;;4.15;70.52
21401;BME280;18038;50.166;18.908;2023-03-26T04:22:07;96966.31;;;4.24;69.80
21401;BME280;18038;50.166;18.908;2023-03-26T04:25:26;96971.44;;;4.25;69.96
21401;BME280;18038;50.166;18.908;2023-03-26T04:28:47;96965.94;;;4.27;69.89
21401;BME280;18038;50.166;18.908;2023-03-26T04:32:02;96957.56;;;4.23;69.66
21401;BME280;18038;50.166;18.908;2023-03-26T04:35:13;96969.47;;;4.19;69.44
21401;BME280;18038;50.166;18.908;2023-03-26T04:38:36;96960.50;;;4.28;69.60
21401;BME280;18038;50.166;18.908;2023-03-26T04:41:48;96961.78;;;4.32;69.43
21401;BME280;18038;50.166;18.908;2023-03-26T04:44:55;96961.59;;;4.34;68.62
21401;BME280;18038;50.166;18.908;2023-03-26T04:48:07;96965.59;;;4.30;68.68
21401;BME280;18038;50.166;18.908;2023-03-26T04:51:17;96963.78;;;4.30;68.65
21401;BME280;18038;50.166;18.908;2023-03-26T04:54:34;96964.94;;;4.43;68.41
21401;BME280;18038;50.166;18.908;2023-03-26T04:57:50;96964.63;;;4.46;68.14
21401;BME280;18038;50.166;18.908;2023-03-26T05:01:27;96964.13;;;4.42;68.03
21401;BME280;18038;50.166;18.908;2023-03-26T05:04:33;96960.31;;;4.45;68.16
21401;BME280;18038;50.166;18.908;2023-03-26T05:07:44;96961.84;;;4.39;67.94
21401;BME280;18038;50.166;18.908;2023-03-26T05:10:55;96960.03;;;4.40;68.22
21401;BME280;18038;50.166;18.908;2023-03-26T05:14:08;96963.28;;;4.27;68.45
21401;BME280;18038;50.166;18.908;2023-03-26T05:17:15;96952.28;;;4.23;68.31
21401;BME280;18038;50.166;18.908;2023-03-26T05:20:28;96961.69;;;4.41;67.91
21401;BME280;18038;50.166;18.908;2023-03-26T05:23:40;96969.16;;;4.37;67.48
21401;BME280;18038;50.166;18.908;2023-03-26T05:26:57;96967.88;;;4.48;67.27
21401;BME280;18038;50.166;18.908;2023-03-26T05:30:04;96966.06;;;4.48;67.49
21401;BME280;18038;50.166;18.908;2023-03-26T05:33:19;96967.72;;;4.49;67.24
21401;BME280;18038;50.166;18.908;2023-03-26T05:36:34;96966.53;;;4.52;66.82
21401;BME280;18038;50.166;18.908;2023-03-26T05:40:03;96956.41;;;4.41;67.10
21401;BME280;18038;50.166;18.908;2023-03-26T05:43:23;96967.88;;;4.48;66.72
21401;BME280;18038;50.166;18.908;2023-03-26T05:46:42;96968.25;;;4.59;66.46
21401;BME280;18038;50.166;18.908;2023-03-26T05:49:55;96967.16;;;4.69;66.40
21401;BME280;18038;50.166;18.908;2023-03-26T05:53:11;96969.09;;;4.75;65.93
21401;BME280;18038;50.166;18.908;2023-03-26T05:56:39;96974.59;;;4.95;65.51
21401;BME280;18038;50.166;18.908;2023-03-26T06:00:08;96986.13;;;4.87;65.11
21401;BME280;18038;50.166;18.908;2023-03-26T06:03:19;96976.06;;;5.12;64.55
21401;BME280;18038;50.166;18.908;2023-03-26T06:06:50;96976.13;;;5.19;64.45
21401;BME280;18038;50.166;18.908;2023-03-26T06:09:56;96984.16;;;5.11;63.98
21401;BME280;18038;50.166;18.908;2023-03-26T06:13:04;96985.88;;;5.18;64.07
21401;BME280;18038;50.166;18.908;2023-03-26T06:16:16;96982.59;;;5.16;64.40
21401;BME280;18038;50.166;18.908;2023-03-26T06:19:48;96984.47;;;5.37;63.61
21401;BME280;18038;50.166;18.908;2023-03-26T06:23:08;96988.44;;;5.48;63.49
21401;BME280;18038;50.166;18.908;2023-03-26T06:26:33;96997.47;;;5.68;62.91
21401;BME280;18038;50.166;18.908;2023-03-26T06:29:55;96979.59;;;5.56;62.86
21401;BME280;18038;50.166;18.908;2023-03-26T06:33:21;96985.59;;;5.64;62.91
21401;BME280;18038;50.166;18.908;2023-03-26T06:36:27;96984.47;;;5.74;61.92
21401;BME280;18038;50.166;18.908;2023-03-26T06:39:34;96984.75;;;6.07;61.67
21401;BME280;18038;50.166;18.908;2023-03-26T06:43:03;96984.81;;;6.13;60.92
21401;BME280;18038;50.166;18.908;2023-03-26T06:46:33;96983.94;;;6.06;61.23
21401;BME280;18038;50.166;18.908;2023-03-26T06:50:00;96980.97;;;6.16;61.02
21401;BME280;18038;50.166;18.908;2023-03-26T06:53:08;96991.16;;;6.12;61.03
21401;BME280;18038;50.166;18.908;2023-03-26T06:56:36;97000.50;;;5.87;61.84
21401;BME280;18038;50.166;18.908;2023-03-26T07:00:08;96992.28;;;5.82;62.07
21401;BME280;18038;50.166;18.908;2023-03-26T07:03:34;96996.25;;;5.93;62.04
21401;BME280;18038;50.166;18.908;2023-03-26T07:07:05;96987.75;;;5.76;62.60
21401;BME280;18038;50.166;18.908;2023-03-26T07:10:31;96990.59;;;5.74;62.95
21401;BME280;18038;50.166;18.908;2023-03-26T07:13:58;96995.19;;;6.08;61.82
21401;BME280;18038;50.166;18.908;2023-03-26T07:17:26;96995.22;;;6.43;61.01
21401;BME280;18038;50.166;18.908;2023-03-26T07:20:48;96989.44;;;6.33;60.78
21401;BME280;18038;50.166;18.908;2023-03-26T07:23:59;96983.06;;;6.21;60.98
21401;BME280;18038;50.166;18.908;2023-03-26T07:27:45;96985.25;;;6.17;60.73
21401;BME280;18038;50.166;18.908;2023-03-26T07:31:30;96998.00;;;6.28;61.06
21401;BME280;18038;50.166;18.908;2023-03-26T07:35:24;96995.91;;;6.24;61.03
21401;BME280;18038;50.166;18.908;2023-03-26T07:39:17;96994.59;;;6.41;60.50
21401;BME280;18038;50.166;18.908;2023-03-26T07:42:59;97000.28;;;6.66;60.05
21401;BME280;18038;50.166;18.908;2023-03-26T07:46:51;97003.09;;;6.58;60.04
21401;BME280;18038;50.166;18.908;2023-03-26T07:50:27;97003.66;;;6.82;59.23
21401;BME280;18038;50.166;18.908;2023-03-26T07:53:47;97001.03;;;6.88;58.87
21401;BME280;18038;50.166;18.908;2023-03-26T07:57:41;97001.75;;;7.10;58.15
21401;BME280;18038;50.166;18.908;2023-03-26T08:01:20;96995.66;;;7.23;57.83
21401;BME280;18038;50.166;18.908;2023-03-26T08:04:54;96993.03;;;7.84;55.68
21401;BME280;18038;50.166;18.908;2023-03-26T08:08:36;96994.94;;;9.15;52.82
21401;BME280;18038;50.166;18.908;2023-03-26T08:12:19;96996.56;;;10.93;48.16
21401;BME280;18038;50.166;18.908;2023-03-26T08:15:42;96994.13;;;11.77;45.57
21401;BME280;18038;50.166;18.908;2023-03-26T08:19:12;96994.78;;;12.03;44.36
21401;BME280;18038;50.166;18.908;2023-03-26T08:22:33;96982.69;;;11.70;44.58
21401;BME280;18038;50.166;18.908;2023-03-26T08:25:56;96988.84;;;11.22;45.78
21401;BME280;18038;50.166;18.908;2023-03-26T08:29:17;96981.75;;;10.04;49.03
21401;BME280;18038;50.166;18.908;2023-03-26T08:32:32;96975.53;;;9.47;48.94
21401;BME280;18038;50.166;18.908;2023-03-26T08:35:41;96971.44;;;9.44;49.79
21401;BME280;18038;50.166;18.908;2023-03-26T08:38:57;96983.53;;;10.35;47.99
21401;BME280;18038;50.166;18.908;2023-03-26T08:42:44;96976.06;;;11.24;46.16
21401;BME280;18038;50.166;18.908;2023-03-26T08:46:42;96973.66;;;11.53;45.59
21401;BME280;18038;50.166;18.908;2023-03-26T08:58:55;96958.66;;;11.03;45.70
21401;BME280;18038;50.166;18.908;2023-03-26T09:02:36;96962.09;;;10.48;46.59
21401;BME280;18038;50.166;18.908;2023-03-26T09:10:22;96947.59;;;10.13;47.46
21401;BME280;18038;50.166;18.908;2023-03-26T09:26:23;96945.50;;;9.64;50.12
21401;BME280;18038;50.166;18.908;2023-03-26T09:33:56;96943.50;;;10.60;47.39
21401;BME280;18038;50.166;18.908;2023-03-26T09:37:24;96938.47;;;10.70;46.70
21401;BME280;18038;50.166;18.908;2023-03-26T09:41:14;96944.75;;;10.58;45.82
21401;BME280;18038;50.166;18.908;2023-03-26T09:49:02;96944.25;;;9.67;47.78
21401;BME280;18038;50.166;18.908;2023-03-26T09:52:43;96949.75;;;9.40;49.03
21401;BME280;18038;50.166;18.908;2023-03-26T09:56:18;96945.41;;;9.46;49.89
21401;BME280;18038;50.166;18.908;2023-03-26T10:00:08;96935.06;;;9.25;51.33
21401;BME280;18038;50.166;18.908;2023-03-26T10:03:53;96937.94;;;9.16;51.33
21401;BME280;18038;50.166;18.908;2023-03-26T10:07:30;96932.44;;;9.18;50.82
21401;BME280;18038;50.166;18.908;2023-03-26T10:10:54;96933.84;;;9.20;49.82
21401;BME280;18038;50.166;18.908;2023-03-26T10:14:16;96921.69;;;9.31;50.45
21401;BME280;18038;50.166;18.908;2023-03-26T10:17:53;96921.13;;;9.23;50.54
21401;BME280;18038;50.166;18.908;2023-03-26T10:21:39;96918.66;;;9.28;50.67
21401;BME280;18038;50.166;18.908;2023-03-26T10:25:21;96904.56;;;9.77;49.52
21401;BME280;18038;50.166;18.908;2023-03-26T10:29:00;96898.31;;;10.40;49.93
21401;BME280;18038;50.166;18.908;2023-03-26T10:32:47;96907.13;;;11.45;48.13
21401;BME280;18038;50.166;18.908;2023-03-26T10:36:26;96901.59;;;12.35;43.84
21401;BME280;18038;50.166;18.908;2023-03-26T10:39:54;96905.69;;;12.38;42.78
21401;BME280;18038;50.166;18.908;2023-03-26T10:43:39;96905.25;;;13.05;42.38
21401;BME280;18038;50.166;18.908;2023-03-26T10:47:37;96897.38;;;12.75;41.00
21401;BME280;18038;50.166;18.908;2023-03-26T10:51:20;96896.47;;;12.57;42.07
21401;BME280;18038;50.166;18.908;2023-03-26T10:54:50;96899.38;;;12.20;42.68
21401;BME280;18038;50.166;18.908;2023-03-26T10:58:14;96894.34;;;11.89;42.17
21401;BME280;18038;50.166;18.908;2023-03-26T11:01:38;96890.31;;;12.45;41.66
21401;BME280;18038;50.166;18.908;2023-03-26T11:05:23;96887.16;;;12.36;41.87
21401;BME280;18038;50.166;18.908;2023-03-26T11:08:55;96884.09;;;11.74;41.28
21401;BME280;18038;50.166;18.908;2023-03-26T11:12:18;96888.69;;;12.20;41.96
21401;BME280;18038;50.166;18.908;2023-03-26T11:15:38;96875.38;;;11.78;42.13
21401;BME280;18038;50.166;18.908;2023-03-26T11:18:58;96870.03;;;12.49;40.73
21401;BME280;18038;50.166;18.908;2023-03-26T11:22:22;96876.63;;;12.93;39.85
21401;BME280;18038;50.166;18.908;2023-03-26T11:25:51;96868.19;;;13.59;37.94
21401;BME280;18038;50.166;18.908;2023-03-26T11:29:27;96856.47;;;13.82;37.78
21401;BME280;18038;50.166;18.908;2023-03-26T11:32:52;96858.53;;;14.09;35.98
21401;BME280;18038;50.166;18.908;2023-03-26T11:36:07;96861.53;;;13.95;36.83
21401;BME280;18038;50.166;18.908;2023-03-26T11:39:23;96860.38;;;13.29;38.38
21401;BME280;18038;50.166;18.908;2023-03-26T11:42:50;96862.19;;;12.71;38.77
21401;BME280;18038;50.166;18.908;2023-03-26T11:46:06;96869.88;;;13.20;38.19
21401;BME280;18038;50.166;18.908;2023-03-26T11:49:20;96846.88;;;13.86;36.32
21401;BME280;18038;50.166;18.908;2023-03-26T11:52:27;96839.97;;;13.11;37.57
21401;BME280;18038;50.166;18.908;2023-03-26T11:55:40;96842.06;;;13.71;37.35
21401;BME280;18038;50.166;18.908;2023-03-26T11:58:57;96843.88;;;13.20;36.77
21401;BME280;18038;50.166;18.908;2023-03-26T12:02:45;96839.56;;;12.50;37.03
21401;BME280;18038;50.166;18.908;2023-03-26T12:05:58;96832.03;;;12.00;38.38
21401;BME280;18038;50.166;18.908;2023-03-26T12:09:15;96828.03;;;11.67;40.13
21401;BME280;18038;50.166;18.908;2023-03-26T12:12:35;96826.19;;;11.79;40.45
21401;BME280;18038;50.166;18.908;2023-03-26T12:15:45;96814.31;;;11.75;40.71
21401;BME280;18038;50.166;18.908;2023-03-26T12:18:58;96818.78;;;11.39;41.14
21401;BME280;18038;50.166;18.908;2023-03-26T12:22:29;96812.28;;;11.05;41.64
21401;BME280;18038;50.166;18.908;2023-03-26T12:25:38;96807.34;;;10.90;42.16
21401;BME280;18038;50.166;18.908;2023-03-26T12:28:49;96811.53;;;10.86;42.66
21401;BME280;18038;50.166;18.908;2023-03-26T12:32:03;96809.59;;;10.75;42.24
21401;BME280;18038;50.166;18.908;2023-03-26T12:35:15;96802.22;;;10.59;43.79
21401;BME280;18038;50.166;18.908;2023-03-26T12:38:36;96801.19;;;10.23;45.04
21401;BME280;18038;50.166;18.908;2023-03-26T12:42:28;96793.19;;;10.23;45.91
21401;BME280;18038;50.166;18.908;2023-03-26T12:45:59;96781.94;;;10.39;45.14
21401;BME280;18038;50.166;18.908;2023-03-26T12:49:26;96776.59;;;10.39;44.79
21401;BME280;18038;50.166;18.908;2023-03-26T12:56:29;96772.41;;;10.43;45.40
21401;BME280;18038;50.166;18.908;2023-03-26T12:59:53;96767.47;;;10.77;45.76
21401;BME280;18038;50.166;18.908;2023-03-26T13:03:32;96761.75;;;11.04;43.24
21401;BME280;18038;50.166;18.908;2023-03-26T13:07:02;96772.25;;;11.17;42.62
21401;BME280;18038;50.166;18.908;2023-03-26T13:10:35;96768.75;;;11.28;42.07
21401;BME280;18038;50.166;18.908;2023-03-26T13:14:07;96760.34;;;11.01;42.05
21401;BME280;18038;50.166;18.908;2023-03-26T13:17:38;96760.72;;;10.74;42.50
21401;BME280;18038;50.166;18.908;2023-03-26T13:20:59;96749.97;;;10.81;42.05
21401;BME280;18038;50.166;18.908;2023-03-26T13:24:33;96745.97;;;11.14;42.67
21401;BME280;18038;50.166;18.908;2023-03-26T13:27:58;96741.34;;;11.21;42.69
21401;BME280;18038;50.166;18.908;2023-03-26T13:31:59;96737.38;;;11.12;42.84
21401;BME280;18038;50.166;18.908;2023-03-26T13:35:25;96727.59;;;11.06;42.89
21401;BME280;18038;50.166;18.908;2023-03-26T13:38:57;96724.88;;;10.82;43.29
21401;BME280;18038;50.166;18.908;2023-03-26T13:42:27;96719.72;;;11.11;43.09
21401;BME280;18038;50.166;18.908;2023-03-26T13:45:54;96732.56;;;10.90;43.22
21401;BME280;18038;50.166;18.908;2023-03-26T13:49:12;96725.19;;;10.62;42.73
21401;BME280;18038;50.166;18.908;2023-03-26T13:52:25;96729.09;;;10.60;42.17
21401;BME280;18038;50.166;18.908;2023-03-26T13:55:43;96712.81;;;10.49;42.33
21401;BME280;18038;50.166;18.908;2023-03-26T13:59:00;96720.09;;;10.42;43.48
21401;BME280;18038;50.166;18.908;2023-03-26T14:02:17;96718.72;;;10.51;43.27
21401;BME280;18038;50.166;18.908;2023-03-26T14:05:32;96723.09;;;10.46;43.97
21401;BME280;18038;50.166;18.908;2023-03-26T14:08:50;96709.41;;;10.42;43.39
21401;BME280;18038;50.166;18.908;2023-03-26T14:12:17;96714.69;;;10.49;43.84
21401;BME280;18038;50.166;18.908;2023-03-26T14:15:46;96710.50;;;10.53;43.47
21401;BME280;18038;50.166;18.908;2023-03-26T14:19:11;96694.81;;;10.45;42.79
21401;BME280;18038;50.166;18.908;2023-03-26T14:22:47;96691.00;;;10.52;43.04
21401;BME280;18038;50.166;18.908;2023-03-26T14:26:27;96690.53;;;10.56;43.56
21401;BME280;18038;50.166;18.908;2023-03-26T14:29:58;96686.88;;;10.38;42.72
21401;BME280;18038;50.166;18.908;2023-03-26T14:33:54;96694.44;;;10.23;43.05
21401;BME280;18038;50.166;18.908;2023-03-26T14:37:28;96693.53;;;10.29;42.85
21401;BME280;18038;50.166;18.908;2023-03-26T14:41:18;96698.44;;;10.32;42.76
21401;BME280;18038;50.166;18.908;2023-03-26T14:44:54;96692.09;;;9.96;44.21
21401;BME280;18038;50.166;18.908;2023-03-26T14:52:45;96684.66;;;10.17;44.02
21401;BME280;18038;50.166;18.908;2023-03-26T14:56:20;96682.13;;;10.22;43.92
21401;BME280;18038;50.166;18.908;2023-03-26T15:04:36;96675.97;;;10.21;43.23
21401;BME280;18038;50.166;18.908;2023-03-26T15:12:25;96676.25;;;10.32;42.83
21401;BME280;18038;50.166;18.908;2023-03-26T15:24:17;96666.72;;;10.24;41.42
21401;BME280;18038;50.166;18.908;2023-03-26T15:27:56;96645.03;;;10.20;39.77
21401;BME280;18038;50.166;18.908;2023-03-26T15:32:16;96656.78;;;10.31;40.48
21401;BME280;18038;50.166;18.908;2023-03-26T15:44:05;96651.97;;;10.21;40.65
21401;BME280;18038;50.166;18.908;2023-03-26T15:47:50;96653.03;;;10.20;40.91
21401;BME280;18038;50.166;18.908;2023-03-26T15:55:00;96647.13;;;9.81;41.87
21401;BME280;18038;50.166;18.908;2023-03-26T15:58:29;96642.16;;;9.85;42.40
21401;BME280;18038;50.166;18.908;2023-03-26T16:01:55;96644.13;;;9.78;42.09
21401;BME280;18038;50.166;18.908;2023-03-26T16:05:29;96638.94;;;9.83;42.30
21401;BME280;18038;50.166;18.908;2023-03-26T16:08:56;96642.41;;;9.83;42.58
21401;BME280;18038;50.166;18.908;2023-03-26T16:12:31;96636.47;;;9.81;42.08
21401;BME280;18038;50.166;18.908;2023-03-26T16:15:41;96634.00;;;9.98;42.21
21401;BME280;18038;50.166;18.908;2023-03-26T16:22:57;96627.25;;;9.96;42.30
21401;BME280;18038;50.166;18.908;2023-03-26T16:26:19;96636.31;;;9.95;42.57
21401;BME280;18038;50.166;18.908;2023-03-26T16:29:34;96633.94;;;9.86;42.82
21401;BME280;18038;50.166;18.908;2023-03-26T16:33:18;96630.94;;;9.83;42.83
21401;BME280;18038;50.166;18.908;2023-03-26T16:36:41;96633.44;;;9.78;43.24
21401;BME280;18038;50.166;18.908;2023-03-26T16:39:52;96632.75;;;9.64;43.68
21401;BME280;18038;50.166;18.908;2023-03-26T16:47:08;96633.47;;;9.59;43.95
21401;BME280;18038;50.166;18.908;2023-03-26T16:50:44;96637.81;;;9.35;44.95
21401;BME280;18038;50.166;18.908;2023-03-26T16:54:10;96632.97;;;9.26;44.84
21401;BME280;18038;50.166;18.908;2023-03-26T16:57:28;96634.41;;;9.28;45.42
21401;BME280;18038;50.166;18.908;2023-03-26T17:00:48;96639.47;;;9.11;45.52
21401;BME280;18038;50.166;18.908;2023-03-26T17:04:09;96641.03;;;9.19;45.26
21401;BME280;18038;50.166;18.908;2023-03-26T17:07:32;96637.75;;;8.98;45.64
21401;BME280;18038;50.166;18.908;2023-03-26T17:10:54;96637.16;;;8.96;45.43
21401;BME280;18038;50.166;18.908;2023-03-26T17:14:16;96626.94;;;8.87;46.12
21401;BME280;18038;50.166;18.908;2023-03-26T17:17:56;96630.69;;;8.79;45.91
21401;BME280;18038;50.166;18.908;2023-03-26T17:21:30;96624.84;;;8.70;46.12
21401;BME280;18038;50.166;18.908;2023-03-26T17:24:55;96626.69;;;8.70;46.36
21401;BME280;18038;50.166;18.908;2023-03-26T17:28:46;96631.03;;;8.64;46.52
21401;BME280;18038;50.166;18.908;2023-03-26T17:32:08;96640.25;;;8.62;46.88
21401;BME280;18038;50.166;18.908;2023-03-26T17:35:35;96632.75;;;8.52;46.74
21401;BME280;18038;50.166;18.908;2023-03-26T17:38:59;96631.94;;;8.51;47.44
21401;BME280;18038;50.166;18.908;2023-03-26T17:42:16;96640.72;;;8.52;47.07
21401;BME280;18038;50.166;18.908;2023-03-26T17:45:33;96638.50;;;8.49;47.16
21401;BME280;18038;50.166;18.908;2023-03-26T17:48:53;96635.22;;;8.47;47.48
21401;BME280;18038;50.166;18.908;2023-03-26T17:52:17;96646.84;;;8.52;46.91
21401;BME280;18038;50.166;18.908;2023-03-26T17:55:36;96634.41;;;8.46;46.98
21401;BME280;18038;50.166;18.908;2023-03-26T17:58:50;96631.38;;;8.43;46.91
21401;BME280;18038;50.166;18.908;2023-03-26T18:02:30;96626.47;;;8.40;46.54
21401;BME280;18038;50.166;18.908;2023-03-26T18:06:01;96632.03;;;8.38;46.35
21401;BME280;18038;50.166;18.908;2023-03-26T18:09:34;96623.44;;;8.36;46.67
21401;BME280;18038;50.166;18.908;2023-03-26T18:13:16;96632.22;;;8.37;46.54
21401;BME280;18038;50.166;18.908;2023-03-26T18:16:47;96631.47;;;8.29;46.31
21401;BME280;18038;50.166;18.908;2023-03-26T18:20:28;96641.53;;;8.21;46.73
21401;BME280;18038;50.166;18.908;2023-03-26T18:23:45;96631.56;;;8.09;47.25
21401;BME280;18038;50.166;18.908;2023-03-26T18:26:56;96631.56;;;8.09;47.72
21401;BME280;18038;50.166;18.908;2023-03-26T18:30:18;96632.25;;;7.98;49.20
21401;BME280;18038;50.166;18.908;2023-03-26T18:33:40;96645.78;;;7.90;49.78
21401;BME280;18038;50.166;18.908;2023-03-26T18:37:10;96650.69;;;7.86;50.41
21401;BME280;18038;50.166;18.908;2023-03-26T18:40:23;96635.16;;;7.83;50.75
21401;BME280;18038;50.166;18.908;2023-03-26T18:43:38;96642.19;;;7.71;51.68
21401;BME280;18038;50.166;18.908;2023-03-26T18:46:53;96655.28;;;7.66;52.44
21401;BME280;18038;50.166;18.908;2023-03-26T18:50:01;96647.94;;;7.55;53.49
21401;BME280;18038;50.166;18.908;2023-03-26T18:53:15;96649.81;;;7.48;54.05
21401;BME280;18038;50.166;18.908;2023-03-26T18:56:29;96658.38;;;7.50;54.19
21401;BME280;18038;50.166;18.908;2023-03-26T18:59:42;96648.41;;;7.38;54.19
21401;BME280;18038;50.166;18.908;2023-03-26T19:03:01;96648.19;;;7.40;55.12
21401;BME280;18038;50.166;18.908;2023-03-26T19:06:12;96649.63;;;7.42;55.46
21401;BME280;18038;50.166;18.908;2023-03-26T19:09:25;96641.44;;;7.51;55.21